Time,TemperatureF,DewpointF,PressureIn,WindDirection,WindDirectionDegrees,WindSpeedMPH,WindSpeedGustMPH,Humidity,HourlyPrecipIn,Conditions,Clouds,dailyrainin,SoftwareType,DateUTC
2013-07-04 00:01:00,66.9,66.0,30.12,NNW,339,0.0,0.0,97,0.11,,CLR,0.25,VWS V14.00,2013-07-04 04:01:00,
2013-07-04 00:02:00,66.9,66.0,30.12,NNW,339,0.0,0.0,97,0.07,,CLR,0.00,VWS V14.00,2013-07-04 04:02:00,
2013-07-04 00:07:00,66.9,66.0,30.12,NNW,339,0.0,0.0,97,0.07,,CLR,0.00,VWS V14.00,2013-07-04 04:07:00,
2013-07-04 00:12:00,66.9,66.0,30.12,NNW,339,0.0,0.0,97,0.07,,CLR,0.00,VWS V14.00,2013-07-04 04:12:00,
2013-07-04 00:17:00,66.8,65.9,30.13,NNW,339,0.0,0.0,97,0.08,,CLR,0.01,VWS V14.00,2013-07-04 04:17:00,
2013-07-04 00:22:00,66.8,65.9,30.13,NNW,339,0.0,0.0,97,0.09,,CLR,0.02,VWS V14.00,2013-07-04 04:22:00,
2013-07-04 00:27:00,66.9,66.0,30.13,NNW,339,0.0,0.0,97,0.10,,CLR,0.03,VWS V14.00,2013-07-04 04:27:00,
2013-07-04 00:32:00,66.9,66.0,30.13,NNW,339,0.0,0.0,97,0.07,,CLR,0.04,VWS V14.00,2013-07-04 04:32:00,
2013-07-04 00:37:00,66.9,66.0,30.13,NNW,339,0.0,0.0,97,0.08,,CLR,0.05,VWS V14.00,2013-07-04 04:37:00,
2013-07-04 00:42:00,66.9,66.0,30.13,NNW,339,0.0,0.0,97,0.08,,CLR,0.05,VWS V14.00,2013-07-04 04:42:00,
2013-07-04 00:47:00,66.9,66.0,30.13,NNW,339,0.0,0.0,97,0.09,,CLR,0.06,VWS V14.00,2013-07-04 04:47:00,
2013-07-04 00:52:00,66.9,66.0,30.13,NNW,339,0.0,0.0,97,0.11,,CLR,0.08,VWS V14.00,2013-07-04 04:52:00,
2013-07-04 00:57:00,66.9,66.0,30.13,NNW,339,0.0,1.0,97,0.12,,CLR,0.09,VWS V14.00,2013-07-04 04:57:00,
2013-07-04 01:02:00,66.9,66.0,30.12,NNW,339,0.0,1.0,97,0.10,,CLR,0.10,VWS V14.00,2013-07-04 05:02:00,
2013-07-04 01:07:00,66.8,65.9,30.12,NNW,339,0.0,3.0,97,0.12,,CLR,0.12,VWS V14.00,2013-07-04 05:07:00,
2013-07-04 01:12:00,66.8,65.9,30.12,NNW,339,0.0,3.0,97,0.22,,CLR,0.22,VWS V14.00,2013-07-04 05:12:00,
2013-07-04 01:17:00,66.8,65.9,30.13,NNW,339,0.0,3.0,97,0.33,,CLR,0.33,VWS V14.00,2013-07-04 05:17:00,
2013-07-04 01:22:00,66.8,65.9,30.13,NNW,339,0.0,3.0,97,0.42,,CLR,0.42,VWS V14.00,2013-07-04 05:22:00,
2013-07-04 01:27:00,66.8,65.9,30.13,NNW,339,0.0,3.0,97,0.47,,CLR,0.47,VWS V14.00,2013-07-04 05:27:00,
2013-07-04 01:32:00,66.8,65.9,30.13,NNW,339,0.0,0.0,97,0.43,,CLR,0.47,VWS V14.00,2013-07-04 05:32:00,
2013-07-04 01:37:00,66.8,65.9,30.13,NNW,339,0.0,1.0,97,0.44,,CLR,0.48,VWS V14.00,2013-07-04 05:37:00,
2013-07-04 01:42:00,66.9,66.0,30.13,NNW,339,0.0,1.0,97,0.44,,CLR,0.48,VWS V14.00,2013-07-04 05:42:00,
2013-07-04 01:47:00,66.9,66.0,30.11,NNW,339,0.0,1.0,97,0.45,,CLR,0.49,VWS V14.00,2013-07-04 05:47:00,
2013-07-04 01:52:00,66.9,66.0,30.11,NNW,339,0.0,1.0,97,0.45,,CLR,0.49,VWS V14.00,2013-07-04 05:52:00,
2013-07-04 01:57:00,66.9,66.0,30.11,NNW,339,0.0,1.0,97,0.47,,CLR,0.51,VWS V14.00,2013-07-04 05:57:00,
2013-07-04 02:02:00,67.0,66.1,30.11,NNW,339,0.0,0.0,97,0.42,,CLR,0.51,VWS V14.00,2013-07-04 06:02:00,
2013-07-04 02:07:00,67.0,66.1,30.11,NNW,339,0.0,0.0,97,0.42,,CLR,0.51,VWS V14.00,2013-07-04 06:07:00,
2013-07-04 02:12:00,67.1,66.2,30.11,NNW,339,0.0,0.0,97,0.42,,CLR,0.51,VWS V14.00,2013-07-04 06:12:00,
2013-07-04 02:17:00,67.1,66.2,30.11,NNW,339,0.0,0.0,97,0.42,,CLR,0.51,VWS V14.00,2013-07-04 06:17:00,
2013-07-04 02:22:00,67.2,66.3,30.11,NNW,339,0.0,0.0,97,0.42,,CLR,0.51,VWS V14.00,2013-07-04 06:22:00,
2013-07-04 02:27:00,67.2,66.3,30.11,NNW,339,0.0,0.0,97,0.42,,CLR,0.51,VWS V14.00,2013-07-04 06:27:00,
2013-07-04 02:32:00,67.2,66.3,30.11,NNW,339,0.0,0.0,97,0.04,,CLR,0.51,VWS V14.00,2013-07-04 06:32:00,
2013-07-04 02:37:00,67.2,66.3,30.11,NNW,339,0.0,0.0,97,0.04,,CLR,0.51,VWS V14.00,2013-07-04 06:37:00,
2013-07-04 02:42:00,67.2,66.3,30.11,NNW,339,0.0,0.0,97,0.04,,CLR,0.51,VWS V14.00,2013-07-04 06:42:00,
2013-07-04 02:47:00,67.2,66.3,30.10,NNW,339,0.0,0.0,97,0.04,,CLR,0.51,VWS V14.00,2013-07-04 06:47:00,
2013-07-04 02:52:00,67.2,66.3,30.10,NNW,339,0.0,0.0,97,0.04,,CLR,0.51,VWS V14.00,2013-07-04 06:52:00,
2013-07-04 02:57:00,67.2,66.3,30.10,NNW,339,0.0,0.0,97,0.04,,CLR,0.51,VWS V14.00,2013-07-04 06:57:00,
2013-07-04 03:02:00,67.3,66.4,30.10,NNW,339,0.0,0.0,97,0.00,,CLR,0.51,VWS V14.00,2013-07-04 07:02:00,
2013-07-04 03:07:00,67.3,66.4,30.10,NNW,339,0.0,0.0,97,0.00,,CLR,0.51,VWS V14.00,2013-07-04 07:07:00,
2013-07-04 03:12:00,67.4,66.5,30.10,NNW,339,0.0,0.0,97,0.00,,CLR,0.51,VWS V14.00,2013-07-04 07:12:00,
2013-07-04 03:17:00,67.4,66.5,30.10,NNW,339,0.0,0.0,97,0.00,,CLR,0.51,VWS V14.00,2013-07-04 07:17:00,
2013-07-04 03:22:00,67.5,66.6,30.10,NNW,339,0.0,0.0,97,0.01,,CLR,0.52,VWS V14.00,2013-07-04 07:22:00,
2013-07-04 03:27:00,67.5,66.6,30.10,NNW,339,0.0,0.0,97,0.01,,CLR,0.52,VWS V14.00,2013-07-04 07:27:00,
2013-07-04 03:32:00,67.6,66.7,30.10,NNW,339,0.0,0.0,97,0.01,,CLR,0.52,VWS V14.00,2013-07-04 07:32:00,
2013-07-04 03:37:00,67.7,66.8,30.10,NNW,339,0.0,0.0,97,0.01,,CLR,0.52,VWS V14.00,2013-07-04 07:37:00,
2013-07-04 03:42:00,67.7,66.8,30.10,NNW,339,0.0,0.0,97,0.01,,CLR,0.52,VWS V14.00,2013-07-04 07:42:00,
2013-07-04 03:47:00,67.8,66.9,30.09,NNW,339,0.0,0.0,97,0.01,,CLR,0.52,VWS V14.00,2013-07-04 07:47:00,
2013-07-04 03:52:00,67.9,67.0,30.09,NNW,339,0.0,1.0,97,0.01,,CLR,0.52,VWS V14.00,2013-07-04 07:52:00,
2013-07-04 03:57:00,67.9,67.0,30.09,NNW,339,0.0,1.0,97,0.01,,CLR,0.52,VWS V14.00,2013-07-04 07:57:00,
2013-07-04 04:02:00,67.9,67.0,30.10,NNW,339,0.0,1.0,97,0.02,,CLR,0.53,VWS V14.00,2013-07-04 08:02:00,
2013-07-04 04:07:00,67.8,66.9,30.10,NW,323,0.0,4.0,97,0.12,,CLR,0.63,VWS V14.00,2013-07-04 08:07:00,
2013-07-04 04:12:00,68.0,67.1,30.10,North,10,0.0,4.0,97,0.48,,CLR,0.99,VWS V14.00,2013-07-04 08:12:00,
2013-07-04 04:17:00,68.3,67.7,30.10,NNE,21,2.0,4.0,98,0.52,,CLR,1.03,VWS V14.00,2013-07-04 08:17:00,
2013-07-04 04:22:00,68.4,67.8,30.10,NNE,22,0.0,4.0,98,0.52,,CLR,1.03,VWS V14.00,2013-07-04 08:22:00,
2013-07-04 04:27:00,68.6,67.7,30.10,NNE,22,0.0,4.0,97,0.54,,CLR,1.05,VWS V14.00,2013-07-04 08:27:00,
2013-07-04 04:32:00,68.6,67.7,30.10,NNE,32,0.0,0.0,97,0.57,,CLR,1.09,VWS V14.00,2013-07-04 08:32:00,
2013-07-04 04:37:00,68.6,67.7,30.10,ENE,70,0.0,1.0,97,0.59,,CLR,1.11,VWS V14.00,2013-07-04 08:37:00,
2013-07-04 04:42:00,68.7,67.8,30.10,East,90,0.0,1.0,97,0.60,,CLR,1.12,VWS V14.00,2013-07-04 08:42:00,
2013-07-04 04:47:00,68.8,67.9,30.10,East,90,0.0,1.0,97,0.60,,CLR,1.12,VWS V14.00,2013-07-04 08:47:00,
2013-07-04 04:52:00,68.8,67.9,30.10,East,90,0.0,1.0,97,0.60,,CLR,1.12,VWS V14.00,2013-07-04 08:52:00,
2013-07-04 04:57:00,68.9,68.3,30.10,East,90,0.0,1.0,98,0.60,,CLR,1.12,VWS V14.00,2013-07-04 08:57:00,
2013-07-04 05:02:00,68.8,67.9,30.09,East,90,0.0,0.0,97,0.60,,CLR,1.12,VWS V14.00,2013-07-04 09:02:00,
2013-07-04 05:07:00,68.8,67.9,30.09,East,90,0.0,0.0,97,0.60,,CLR,1.12,VWS V14.00,2013-07-04 09:07:00,
2013-07-04 05:12:00,68.6,67.7,30.09,East,90,0.0,0.0,97,0.60,,CLR,1.12,VWS V14.00,2013-07-04 09:12:00,
2013-07-04 05:17:00,68.5,67.6,30.10,East,90,0.0,0.0,97,0.60,,CLR,1.12,VWS V14.00,2013-07-04 09:17:00,
2013-07-04 05:22:00,68.4,67.8,30.10,East,90,0.0,0.0,98,0.60,,CLR,1.12,VWS V14.00,2013-07-04 09:22:00,
2013-07-04 05:27:00,68.2,67.6,30.10,East,90,0.0,0.0,98,0.60,,CLR,1.12,VWS V14.00,2013-07-04 09:27:00,
2013-07-04 05:32:00,68.1,67.2,30.10,East,90,0.0,0.0,97,0.05,,CLR,1.12,VWS V14.00,2013-07-04 09:32:00,
2013-07-04 05:37:00,68.1,67.2,30.10,East,90,0.0,0.0,97,0.05,,CLR,1.12,VWS V14.00,2013-07-04 09:37:00,
2013-07-04 05:42:00,68.0,67.1,30.10,East,90,0.0,0.0,97,0.05,,CLR,1.12,VWS V14.00,2013-07-04 09:42:00,
2013-07-04 05:47:00,68.1,67.2,30.10,East,90,0.0,0.0,97,0.05,,CLR,1.12,VWS V14.00,2013-07-04 09:47:00,
2013-07-04 05:52:00,68.1,67.2,30.10,East,90,0.0,0.0,97,0.05,,CLR,1.12,VWS V14.00,2013-07-04 09:52:00,
2013-07-04 05:57:00,68.1,67.5,30.10,East,90,0.0,0.0,98,0.06,,CLR,1.13,VWS V14.00,2013-07-04 09:57:00,
2013-07-04 06:02:00,68.2,67.6,30.11,East,90,0.0,0.0,98,0.01,,CLR,1.13,VWS V14.00,2013-07-04 10:02:00,
2013-07-04 06:07:00,68.2,67.6,30.11,East,90,0.0,0.0,98,0.01,,CLR,1.13,VWS V14.00,2013-07-04 10:07:00,
2013-07-04 06:12:00,68.2,67.6,30.11,East,90,0.0,0.0,98,0.01,,CLR,1.13,VWS V14.00,2013-07-04 10:12:00,
2013-07-04 06:17:00,68.2,67.6,30.12,East,90,0.0,0.0,98,0.01,,CLR,1.13,VWS V14.00,2013-07-04 10:17:00,
2013-07-04 06:22:00,68.2,67.6,30.12,East,90,0.0,0.0,98,0.01,,CLR,1.13,VWS V14.00,2013-07-04 10:22:00,
2013-07-04 06:27:00,68.3,67.7,30.12,East,90,0.0,0.0,98,0.01,,CLR,1.13,VWS V14.00,2013-07-04 10:27:00,
2013-07-04 06:32:00,68.3,67.7,30.11,East,90,0.0,1.0,98,0.01,,CLR,1.13,VWS V14.00,2013-07-04 10:32:00,
2013-07-04 06:37:00,68.2,67.6,30.11,East,90,0.0,1.0,98,0.01,,CLR,1.13,VWS V14.00,2013-07-04 10:37:00,
2013-07-04 06:42:00,68.3,67.7,30.11,East,90,0.0,1.0,98,0.01,,CLR,1.13,VWS V14.00,2013-07-04 10:42:00,
2013-07-04 06:47:00,68.3,67.7,30.13,East,90,0.0,1.0,98,0.01,,CLR,1.13,VWS V14.00,2013-07-04 10:47:00,
2013-07-04 06:52:00,68.2,67.6,30.13,SSW,211,0.0,1.0,98,0.01,,CLR,1.13,VWS V14.00,2013-07-04 10:52:00,
2013-07-04 06:57:00,68.2,67.3,30.13,SSW,211,0.0,1.0,97,0.01,,CLR,1.13,VWS V14.00,2013-07-04 10:57:00,
2013-07-04 07:02:00,68.1,67.2,30.13,NW,319,0.0,0.0,97,0.00,,CLR,1.13,VWS V14.00,2013-07-04 11:02:00,
2013-07-04 07:07:00,68.2,67.6,30.13,NW,319,0.0,0.0,98,0.00,,CLR,1.13,VWS V14.00,2013-07-04 11:07:00,
2013-07-04 07:12:00,68.2,67.3,30.13,NW,318,0.0,0.0,97,0.00,,CLR,1.13,VWS V14.00,2013-07-04 11:12:00,
2013-07-04 07:17:00,68.1,67.2,30.13,NW,318,0.0,0.0,97,0.00,,CLR,1.13,VWS V14.00,2013-07-04 11:17:00,
2013-07-04 07:22:00,68.0,67.1,30.13,NW,319,0.0,0.0,97,0.00,,CLR,1.13,VWS V14.00,2013-07-04 11:22:00,
2013-07-04 07:27:00,68.0,67.1,30.13,NW,319,0.0,0.0,97,0.00,,CLR,1.13,VWS V14.00,2013-07-04 11:27:00,
2013-07-04 07:32:00,68.0,67.1,30.13,NW,320,0.0,0.0,97,0.01,,CLR,1.14,VWS V14.00,2013-07-04 11:32:00,
2013-07-04 07:37:00,68.0,67.1,30.13,NNW,343,0.0,0.0,97,0.01,,CLR,1.14,VWS V14.00,2013-07-04 11:37:00,
2013-07-04 07:42:00,68.0,67.1,30.13,ENE,75,0.0,0.0,97,0.02,,CLR,1.15,VWS V14.00,2013-07-04 11:42:00,
2013-07-04 07:47:00,68.0,67.1,30.14,ENE,75,0.0,0.0,97,0.02,,CLR,1.15,VWS V14.00,2013-07-04 11:47:00,
2013-07-04 07:52:00,68.0,67.1,30.14,ENE,75,0.0,0.0,97,0.02,,CLR,1.15,VWS V14.00,2013-07-04 11:52:00,
2013-07-04 07:57:00,68.1,67.2,30.14,ENE,75,0.0,0.0,97,0.02,,CLR,1.15,VWS V14.00,2013-07-04 11:57:00,
2013-07-04 08:02:00,68.3,67.7,30.14,East,80,0.0,0.0,98,0.02,,CLR,1.15,VWS V14.00,2013-07-04 12:02:00,
2013-07-04 08:07:00,68.4,67.8,30.14,East,80,0.0,0.0,98,0.02,,CLR,1.15,VWS V14.00,2013-07-04 12:07:00,
2013-07-04 08:12:00,68.5,67.9,30.14,East,101,0.0,1.0,98,0.02,,CLR,1.15,VWS V14.00,2013-07-04 12:12:00,
2013-07-04 08:17:00,68.7,68.1,30.14,East,98,0.0,1.0,98,0.02,,CLR,1.15,VWS V14.00,2013-07-04 12:17:00,
2013-07-04 08:22:00,68.9,68.3,30.14,East,99,0.0,1.0,98,0.02,,CLR,1.15,VWS V14.00,2013-07-04 12:22:00,
2013-07-04 08:27:00,69.2,68.6,30.14,East,97,0.0,1.0,98,0.02,,CLR,1.15,VWS V14.00,2013-07-04 12:27:00,
2013-07-04 08:32:00,69.6,69.0,30.14,East,91,0.0,0.0,98,0.02,,CLR,1.15,VWS V14.00,2013-07-04 12:32:00,
2013-07-04 08:37:00,70.1,69.5,30.14,East,93,0.0,0.0,98,0.02,,CLR,1.15,VWS V14.00,2013-07-04 12:37:00,
2013-07-04 08:42:00,70.4,69.8,30.14,East,93,0.0,0.0,98,0.02,,CLR,1.15,VWS V14.00,2013-07-04 12:42:00,
2013-07-04 08:47:00,70.6,70.0,30.14,North,0,0.0,1.0,98,0.02,,CLR,1.15,VWS V14.00,2013-07-04 12:47:00,
2013-07-04 08:52:00,70.3,69.7,30.14,North,0,0.0,1.0,98,0.02,,CLR,1.15,VWS V14.00,2013-07-04 12:52:00,
2013-07-04 08:57:00,70.1,69.5,30.14,North,0,0.0,1.0,98,0.02,,CLR,1.15,VWS V14.00,2013-07-04 12:57:00,
2013-07-04 09:02:00,70.0,69.4,30.15,North,0,0.0,0.0,98,0.00,,CLR,1.15,VWS V14.00,2013-07-04 13:02:00,
2013-07-04 09:07:00,70.2,69.6,30.15,North,0,0.0,0.0,98,0.00,,CLR,1.15,VWS V14.00,2013-07-04 13:07:00,
2013-07-04 09:12:00,70.5,69.9,30.15,North,0,0.0,0.0,98,0.00,,CLR,1.15,VWS V14.00,2013-07-04 13:12:00,
2013-07-04 09:17:00,70.5,69.9,30.15,North,1,0.0,0.0,98,0.00,,CLR,1.15,VWS V14.00,2013-07-04 13:17:00,
2013-07-04 09:22:00,70.4,69.8,30.15,North,1,0.0,0.0,98,0.00,,CLR,1.15,VWS V14.00,2013-07-04 13:22:00,
2013-07-04 09:27:00,70.4,69.8,30.15,North,1,0.0,0.0,98,0.00,,CLR,1.15,VWS V14.00,2013-07-04 13:27:00,
2013-07-04 09:32:00,70.5,69.9,30.15,North,1,0.0,0.0,98,0.00,,CLR,1.15,VWS V14.00,2013-07-04 13:32:00,
2013-07-04 09:37:00,70.4,69.8,30.15,North,1,0.0,1.0,98,0.00,,CLR,1.15,VWS V14.00,2013-07-04 13:37:00,
2013-07-04 09:42:00,70.3,69.7,30.15,North,1,0.0,1.0,98,0.00,,CLR,1.15,VWS V14.00,2013-07-04 13:42:00,
2013-07-04 09:47:00,70.4,69.8,30.14,North,0,0.0,1.0,98,0.00,,CLR,1.15,VWS V14.00,2013-07-04 13:47:00,
2013-07-04 09:52:00,70.8,70.2,30.14,North,1,0.0,1.0,98,0.00,,CLR,1.15,VWS V14.00,2013-07-04 13:52:00,
2013-07-04 09:57:00,71.2,70.6,30.14,NNE,30,0.0,1.0,98,0.00,,CLR,1.15,VWS V14.00,2013-07-04 13:57:00,
2013-07-04 10:02:00,71.5,70.9,30.14,ENE,68,0.0,0.0,98,0.00,,CLR,1.15,VWS V14.00,2013-07-04 14:02:00,
2013-07-04 10:07:00,71.9,71.3,30.14,WNW,295,0.0,0.0,98,0.00,,CLR,1.15,VWS V14.00,2013-07-04 14:07:00,
2013-07-04 10:12:00,72.2,71.6,30.14,SSE,148,0.0,0.0,98,0.00,,CLR,1.15,VWS V14.00,2013-07-04 14:12:00,
2013-07-04 10:17:00,72.1,71.5,30.14,SE,142,0.0,0.0,98,0.00,,CLR,1.15,VWS V14.00,2013-07-04 14:17:00,
2013-07-04 10:22:00,72.4,71.8,30.14,South,174,0.0,0.0,98,0.00,,CLR,1.15,VWS V14.00,2013-07-04 14:22:00,
2013-07-04 10:27:00,72.7,72.1,30.14,South,174,0.0,0.0,98,0.00,,CLR,1.15,VWS V14.00,2013-07-04 14:27:00,
2013-07-04 10:32:00,73.0,72.4,30.14,South,174,0.0,0.0,98,0.00,,CLR,1.15,VWS V14.00,2013-07-04 14:32:00,
2013-07-04 10:37:00,73.1,72.5,30.14,South,174,0.0,1.0,98,0.00,,CLR,1.15,VWS V14.00,2013-07-04 14:37:00,
2013-07-04 10:42:00,73.1,72.5,30.14,SSW,205,0.0,1.0,98,0.00,,CLR,1.15,VWS V14.00,2013-07-04 14:42:00,
2013-07-04 10:47:00,73.0,72.4,30.14,South,180,0.0,1.0,98,0.04,,CLR,1.19,VWS V14.00,2013-07-04 14:47:00,
2013-07-04 10:52:00,72.9,72.3,30.14,South,180,0.0,1.0,98,0.08,,CLR,1.23,VWS V14.00,2013-07-04 14:52:00,
2013-07-04 10:57:00,73.2,72.6,30.14,South,177,0.0,1.0,98,0.08,,CLR,1.23,VWS V14.00,2013-07-04 14:57:00,
2013-07-04 11:02:00,73.7,73.1,30.14,East,84,0.0,2.0,98,0.08,,CLR,1.23,VWS V14.00,2013-07-04 15:02:00,
2013-07-04 11:07:00,74.1,73.5,30.14,North,354,0.0,2.0,98,0.08,,CLR,1.23,VWS V14.00,2013-07-04 15:07:00,
2013-07-04 11:12:00,73.9,73.3,30.14,North,354,0.0,2.0,98,0.08,,CLR,1.23,VWS V14.00,2013-07-04 15:12:00,
2013-07-04 11:17:00,74.0,73.4,30.14,North,354,0.0,2.0,98,0.08,,CLR,1.23,VWS V14.00,2013-07-04 15:17:00,
2013-07-04 11:22:00,74.3,73.7,30.14,North,354,0.0,2.0,98,0.08,,CLR,1.23,VWS V14.00,2013-07-04 15:22:00,
2013-07-04 11:27:00,74.8,74.2,30.14,North,356,0.0,2.0,98,0.08,,CLR,1.23,VWS V14.00,2013-07-04 15:27:00,
2013-07-04 11:32:00,75.3,74.7,30.13,SW,226,0.0,1.0,98,0.08,,CLR,1.23,VWS V14.00,2013-07-04 15:32:00,
2013-07-04 11:37:00,75.3,74.7,30.13,SW,226,0.0,1.0,98,0.08,,CLR,1.23,VWS V14.00,2013-07-04 15:37:00,
2013-07-04 11:42:00,75.5,74.9,30.13,North,350,0.0,1.0,98,0.08,,CLR,1.23,VWS V14.00,2013-07-04 15:42:00,
2013-07-04 11:47:00,75.5,74.6,30.13,South,190,0.0,1.0,97,0.08,,CLR,1.23,VWS V14.00,2013-07-04 15:47:00,
2013-07-04 11:52:00,75.5,74.6,30.13,South,190,0.0,1.0,97,0.08,,CLR,1.23,VWS V14.00,2013-07-04 15:52:00,
2013-07-04 11:57:00,75.9,75.3,30.13,South,189,0.0,1.0,98,0.08,,CLR,1.23,VWS V14.00,2013-07-04 15:57:00,
2013-07-04 12:02:00,76.3,75.7,30.13,SSW,210,0.0,0.0,98,0.00,,CLR,1.23,VWS V14.00,2013-07-04 16:02:00,
2013-07-04 12:07:00,76.4,75.8,30.13,SSW,200,0.0,0.0,98,0.00,,CLR,1.23,VWS V14.00,2013-07-04 16:07:00,
2013-07-04 12:12:00,76.4,75.8,30.13,NNW,328,1.0,1.0,98,0.00,,CLR,1.23,VWS V14.00,2013-07-04 16:12:00,
2013-07-04 12:17:00,76.7,75.8,30.13,SSW,195,2.0,5.0,97,0.00,,CLR,1.23,VWS V14.00,2013-07-04 16:17:00,
2013-07-04 12:22:00,76.9,76.0,30.13,SE,141,0.0,5.0,97,0.00,,CLR,1.23,VWS V14.00,2013-07-04 16:22:00,
2013-07-04 12:27:00,77.6,76.7,30.13,SE,131,0.0,5.0,97,0.00,,CLR,1.23,VWS V14.00,2013-07-04 16:27:00,
2013-07-04 12:32:00,78.5,77.6,30.12,North,2,0.0,1.0,97,0.00,,CLR,1.23,VWS V14.00,2013-07-04 16:32:00,
2013-07-04 12:37:00,79.0,78.1,30.12,NE,38,0.0,2.0,97,0.00,,CLR,1.23,VWS V14.00,2013-07-04 16:37:00,
2013-07-04 12:42:00,79.1,77.6,30.12,NE,56,0.0,3.0,95,0.00,,CLR,1.23,VWS V14.00,2013-07-04 16:42:00,
2013-07-04 12:47:00,78.9,77.3,30.11,South,175,0.0,3.0,95,0.00,,CLR,1.23,VWS V14.00,2013-07-04 16:47:00,
2013-07-04 12:52:00,79.1,77.6,30.11,South,181,0.0,3.0,95,0.00,,CLR,1.23,VWS V14.00,2013-07-04 16:52:00,
2013-07-04 12:57:00,79.2,77.3,30.11,SE,129,0.0,3.0,94,0.00,,CLR,1.23,VWS V14.00,2013-07-04 16:57:00,
2013-07-04 13:02:00,79.2,77.7,30.11,South,173,0.0,0.0,95,0.00,,CLR,1.23,VWS V14.00,2013-07-04 17:02:00,
2013-07-04 13:07:00,78.9,76.7,30.11,South,169,0.0,1.0,93,0.00,,CLR,1.23,VWS V14.00,2013-07-04 17:07:00,
2013-07-04 13:12:00,78.7,76.5,30.11,SW,232,0.0,1.0,93,0.00,,CLR,1.23,VWS V14.00,2013-07-04 17:12:00,
2013-07-04 13:17:00,78.2,76.3,30.10,SW,232,0.0,1.0,94,0.00,,CLR,1.23,VWS V14.00,2013-07-04 17:17:00,
2013-07-04 13:22:00,77.5,75.6,30.10,SW,232,0.0,1.0,94,0.00,,CLR,1.23,VWS V14.00,2013-07-04 17:22:00,
2013-07-04 13:27:00,77.1,75.6,30.10,SW,231,1.0,1.0,95,0.00,,CLR,1.23,VWS V14.00,2013-07-04 17:27:00,
2013-07-04 13:32:00,76.4,74.9,30.10,SW,231,0.0,1.0,95,0.08,,CLR,1.31,VWS V14.00,2013-07-04 17:32:00,
2013-07-04 13:37:00,76.0,74.5,30.10,SSW,209,0.0,1.0,95,0.13,,CLR,1.36,VWS V14.00,2013-07-04 17:37:00,
2013-07-04 13:42:00,76.2,75.3,30.10,SW,226,0.0,1.0,97,0.14,,CLR,1.37,VWS V14.00,2013-07-04 17:42:00,
2013-07-04 13:47:00,77.1,76.2,30.09,SSW,210,0.0,1.0,97,0.14,,CLR,1.37,VWS V14.00,2013-07-04 17:47:00,
2013-07-04 13:52:00,77.7,76.8,30.09,SE,136,0.0,1.0,97,0.14,,CLR,1.37,VWS V14.00,2013-07-04 17:52:00,
2013-07-04 13:57:00,77.9,76.7,30.09,SE,129,0.0,1.0,96,0.14,,CLR,1.37,VWS V14.00,2013-07-04 17:57:00,
2013-07-04 14:02:00,78.0,76.8,30.09,SE,129,0.0,0.0,96,0.14,,CLR,1.37,VWS V14.00,2013-07-04 18:02:00,
2013-07-04 14:08:00,78.7,77.5,30.09,SE,125,0.0,0.0,96,0.14,,CLR,1.37,VWS V14.00,2013-07-04 18:08:00,
2013-07-04 14:13:00,79.6,78.4,30.09,SE,125,0.0,0.0,96,0.00,,CLR,1.37,VWS V14.00,2013-07-04 18:13:00,
2013-07-04 14:18:00,80.2,78.6,30.08,SE,127,0.0,0.0,95,0.14,,CLR,1.37,VWS V14.00,2013-07-04 18:18:00,
2013-07-04 14:23:00,80.5,78.9,30.08,SE,127,0.0,0.0,95,0.14,,CLR,1.37,VWS V14.00,2013-07-04 18:23:00,
2013-07-04 14:28:00,80.7,78.2,30.08,SE,127,0.0,0.0,92,0.14,,CLR,1.37,VWS V14.00,2013-07-04 18:28:00,
2013-07-04 14:33:00,80.7,78.5,30.08,SE,139,0.0,0.0,93,0.08,,CLR,1.37,VWS V14.00,2013-07-04 18:33:00,
2013-07-04 14:38:00,80.8,78.3,30.08,SE,139,0.0,0.0,92,0.08,,CLR,1.37,VWS V14.00,2013-07-04 18:38:00,
2013-07-04 14:43:00,80.6,78.4,30.08,SE,139,0.0,0.0,93,0.08,,CLR,1.37,VWS V14.00,2013-07-04 18:43:00,
2013-07-04 14:48:00,80.7,78.5,30.08,SE,139,0.0,0.0,93,0.08,,CLR,1.37,VWS V14.00,2013-07-04 18:48:00,
2013-07-04 14:53:00,81.1,78.9,30.08,East,100,0.0,2.0,93,0.08,,CLR,1.37,VWS V14.00,2013-07-04 18:53:00,
2013-07-04 14:58:00,81.2,78.3,30.08,SW,221,0.0,3.0,91,0.08,,CLR,1.37,VWS V14.00,2013-07-04 18:58:00,
2013-07-04 15:03:00,80.7,77.8,30.07,NNE,15,0.0,2.0,91,0.00,,CLR,1.37,VWS V14.00,2013-07-04 19:03:00,
2013-07-04 15:08:00,79.9,77.4,30.07,ESE,117,0.0,5.0,92,0.01,,CLR,1.38,VWS V14.00,2013-07-04 19:08:00,
2013-07-04 15:13:00,79.4,77.2,30.07,ESE,111,0.0,5.0,93,0.01,,CLR,1.38,VWS V14.00,2013-07-04 19:13:00,
2013-07-04 15:18:00,79.2,77.3,30.07,ESE,111,0.0,5.0,94,0.01,,CLR,1.38,VWS V14.00,2013-07-04 19:18:00,
2013-07-04 15:23:00,78.9,77.0,30.07,West,269,0.0,5.0,94,0.01,,CLR,1.38,VWS V14.00,2013-07-04 19:23:00,
2013-07-04 15:28:00,78.7,76.8,30.07,East,91,0.0,5.0,94,0.01,,CLR,1.38,VWS V14.00,2013-07-04 19:28:00,
2013-07-04 15:33:00,78.8,77.2,30.07,ESE,113,0.0,0.0,95,0.01,,CLR,1.38,VWS V14.00,2013-07-04 19:33:00,
2013-07-04 15:38:00,79.5,77.9,30.07,ESE,113,0.0,0.0,95,0.01,,CLR,1.38,VWS V14.00,2013-07-04 19:38:00,
2013-07-04 15:43:00,80.3,78.7,30.07,North,11,0.0,2.0,95,0.01,,CLR,1.38,VWS V14.00,2013-07-04 19:43:00,
2013-07-04 15:48:00,80.8,79.2,30.06,SSE,164,2.0,3.0,95,0.01,,CLR,1.38,VWS V14.00,2013-07-04 19:48:00,
2013-07-04 15:53:00,80.5,78.0,30.06,NW,320,0.0,3.0,92,0.01,,CLR,1.38,VWS V14.00,2013-07-04 19:53:00,
2013-07-04 15:58:00,79.4,76.2,30.06,NNE,30,7.0,11.0,90,0.05,,CLR,1.42,VWS V14.00,2013-07-04 19:58:00,
2013-07-04 16:03:00,76.9,73.4,30.07,SSW,210,0.0,4.0,89,0.11,,CLR,1.48,VWS V14.00,2013-07-04 20:03:00,
2013-07-04 16:08:00,74.9,71.8,30.07,SSE,155,0.0,4.0,90,0.11,,CLR,1.48,VWS V14.00,2013-07-04 20:08:00,
2013-07-04 16:13:00,73.7,71.2,30.07,SSE,155,0.0,4.0,92,0.11,,CLR,1.48,VWS V14.00,2013-07-04 20:13:00,
2013-07-04 16:18:00,73.0,70.9,30.07,SSE,155,0.0,4.0,93,0.11,,CLR,1.48,VWS V14.00,2013-07-04 20:18:00,
2013-07-04 16:23:00,72.8,71.3,30.07,SSE,155,0.0,4.0,95,0.11,,CLR,1.48,VWS V14.00,2013-07-04 20:23:00,
2013-07-04 16:28:00,72.9,71.7,30.07,SSE,155,0.0,4.0,96,0.11,,CLR,1.48,VWS V14.00,2013-07-04 20:28:00,
2013-07-04 16:33:00,73.0,71.8,30.07,SSE,155,0.0,0.0,96,0.10,,CLR,1.48,VWS V14.00,2013-07-04 20:33:00,
2013-07-04 16:38:00,73.1,71.9,30.07,SSE,155,0.0,0.0,96,0.10,,CLR,1.48,VWS V14.00,2013-07-04 20:38:00,
2013-07-04 16:43:00,73.2,72.0,30.07,SSE,155,0.0,0.0,96,0.10,,CLR,1.48,VWS V14.00,2013-07-04 20:43:00,
2013-07-04 16:48:00,73.6,72.7,30.06,East,93,0.0,1.0,97,0.10,,CLR,1.48,VWS V14.00,2013-07-04 20:48:00,
2013-07-04 16:53:00,73.9,73.0,30.06,East,93,0.0,1.0,97,0.10,,CLR,1.48,VWS V14.00,2013-07-04 20:53:00,
2013-07-04 16:58:00,74.7,73.8,30.06,East,93,0.0,1.0,97,0.10,,CLR,1.48,VWS V14.00,2013-07-04 20:58:00,
2013-07-04 17:03:00,75.2,74.3,30.06,SE,137,0.0,2.0,97,0.04,,CLR,1.48,VWS V14.00,2013-07-04 21:03:00,
2013-07-04 17:08:00,75.8,74.9,30.06,SE,136,0.0,2.0,97,0.04,,CLR,1.48,VWS V14.00,2013-07-04 21:08:00,
2013-07-04 17:13:00,76.1,75.2,30.06,SE,131,0.0,2.0,97,0.04,,CLR,1.48,VWS V14.00,2013-07-04 21:13:00,
2013-07-04 17:18:00,76.3,75.4,30.07,SE,131,0.0,2.0,97,0.04,,CLR,1.48,VWS V14.00,2013-07-04 21:18:00,
2013-07-04 17:23:00,76.4,75.5,30.07,SE,131,0.0,2.0,97,0.04,,CLR,1.48,VWS V14.00,2013-07-04 21:23:00,
2013-07-04 17:28:00,76.4,75.5,30.07,SE,131,0.0,2.0,97,0.04,,CLR,1.48,VWS V14.00,2013-07-04 21:28:00,
2013-07-04 17:33:00,76.6,75.7,30.07,SE,131,0.0,0.0,97,0.00,,CLR,1.48,VWS V14.00,2013-07-04 21:33:00,
2013-07-04 17:38:00,76.7,75.5,30.07,SE,131,0.0,1.0,96,0.00,,CLR,1.48,VWS V14.00,2013-07-04 21:38:00,
2013-07-04 17:43:00,76.9,75.7,30.07,SE,131,0.0,1.0,96,0.00,,CLR,1.48,VWS V14.00,2013-07-04 21:43:00,
2013-07-04 17:48:00,77.2,76.0,30.07,SE,131,0.0,1.0,96,0.00,,CLR,1.48,VWS V14.00,2013-07-04 21:48:00,
2013-07-04 17:53:00,77.3,76.1,30.07,NE,53,0.0,1.0,96,0.00,,CLR,1.48,VWS V14.00,2013-07-04 21:53:00,
2013-07-04 17:58:00,77.4,76.2,30.07,ENE,66,0.0,1.0,96,0.00,,CLR,1.48,VWS V14.00,2013-07-04 21:58:00,
2013-07-04 18:03:00,77.5,76.3,30.07,ENE,66,0.0,1.0,96,0.00,,CLR,1.48,VWS V14.00,2013-07-04 22:03:00,
2013-07-04 18:08:00,77.5,76.3,30.07,ENE,65,0.0,1.0,96,0.00,,CLR,1.48,VWS V14.00,2013-07-04 22:08:00,
2013-07-04 18:13:00,77.4,76.2,30.07,ENE,65,0.0,1.0,96,0.00,,CLR,1.48,VWS V14.00,2013-07-04 22:13:00,
2013-07-04 18:18:00,77.4,76.2,30.07,ENE,65,0.0,1.0,96,0.00,,CLR,1.48,VWS V14.00,2013-07-04 22:18:00,
2013-07-04 18:23:00,77.3,76.1,30.07,ENE,65,0.0,1.0,96,0.00,,CLR,1.48,VWS V14.00,2013-07-04 22:23:00,
2013-07-04 18:28:00,77.2,76.0,30.07,ESE,113,1.0,1.0,96,0.00,,CLR,1.48,VWS V14.00,2013-07-04 22:28:00,
2013-07-04 18:33:00,77.1,75.9,30.07,NE,39,0.0,0.0,96,0.00,,CLR,1.48,VWS V14.00,2013-07-04 22:33:00,
2013-07-04 18:38:00,77.0,75.8,30.07,SE,146,0.0,2.0,96,0.00,,CLR,1.48,VWS V14.00,2013-07-04 22:38:00,
2013-07-04 18:43:00,76.8,75.6,30.07,SE,145,0.0,2.0,96,0.00,,CLR,1.48,VWS V14.00,2013-07-04 22:43:00,
2013-07-04 18:48:00,76.5,75.3,30.07,SE,146,0.0,2.0,96,0.00,,CLR,1.48,VWS V14.00,2013-07-04 22:48:00,
2013-07-04 18:53:00,76.2,75.0,30.07,SE,146,0.0,2.0,96,0.00,,CLR,1.48,VWS V14.00,2013-07-04 22:53:00,
2013-07-04 18:58:00,75.9,74.7,30.07,SE,146,0.0,2.0,96,0.00,,CLR,1.48,VWS V14.00,2013-07-04 22:58:00,
2013-07-04 19:03:00,75.7,74.5,30.07,SE,145,0.0,0.0,96,0.00,,CLR,1.48,VWS V14.00,2013-07-04 23:03:00,
2013-07-04 19:08:00,75.5,74.3,30.07,SE,145,0.0,0.0,96,0.00,,CLR,1.48,VWS V14.00,2013-07-04 23:08:00,
2013-07-04 19:13:00,75.4,74.2,30.07,SE,145,0.0,0.0,96,0.00,,CLR,1.48,VWS V14.00,2013-07-04 23:13:00,
2013-07-04 19:18:00,75.3,74.1,30.07,SE,146,0.0,0.0,96,0.00,,CLR,1.48,VWS V14.00,2013-07-04 23:18:00,
2013-07-04 19:23:00,75.2,74.0,30.07,SE,145,0.0,0.0,96,0.00,,CLR,1.48,VWS V14.00,2013-07-04 23:23:00,
2013-07-04 19:28:00,75.2,74.3,30.07,SE,146,0.0,0.0,97,0.00,,CLR,1.48,VWS V14.00,2013-07-04 23:28:00,
2013-07-04 19:33:00,75.2,74.0,30.07,SE,146,0.0,0.0,96,0.00,,CLR,1.48,VWS V14.00,2013-07-04 23:33:00,
2013-07-04 19:38:00,75.1,74.2,30.07,East,96,0.0,1.0,97,0.05,,CLR,1.53,VWS V14.00,2013-07-04 23:38:00,
2013-07-04 19:43:00,75.0,74.1,30.07,East,99,0.0,1.0,97,0.08,,CLR,1.56,VWS V14.00,2013-07-04 23:43:00,
2013-07-04 19:48:00,74.9,74.0,30.07,East,99,0.0,1.0,97,0.09,,CLR,1.57,VWS V14.00,2013-07-04 23:48:00,
2013-07-04 19:53:00,74.8,73.9,30.07,ENE,78,8.0,8.0,97,0.17,,CLR,1.65,VWS V14.00,2013-07-04 23:53:00,
2013-07-04 19:58:00,74.2,73.3,30.07,SSW,194,2.0,17.0,97,0.40,,CLR,1.88,VWS V14.00,2013-07-04 23:58:00,
2013-07-04 20:03:00,72.7,71.5,30.10,WNW,283,0.0,6.0,96,0.51,,CLR,1.99,VWS V14.00,2013-07-05 00:03:00,
2013-07-04 20:08:00,71.8,70.6,30.10,SSE,150,0.0,6.0,96,0.52,,CLR,2.00,VWS V14.00,2013-07-05 00:08:00,
2013-07-04 20:13:00,71.2,70.0,30.10,SE,135,0.0,6.0,96,0.52,,CLR,2.00,VWS V14.00,2013-07-05 00:13:00,
2013-07-04 20:18:00,70.8,69.9,30.08,SE,146,0.0,6.0,97,0.52,,CLR,2.00,VWS V14.00,2013-07-05 00:18:00,
2013-07-04 20:23:00,70.7,69.8,30.08,North,1,0.0,6.0,97,0.52,,CLR,2.00,VWS V14.00,2013-07-05 00:23:00,
2013-07-04 20:28:00,70.6,69.7,30.08,SE,131,0.0,6.0,97,0.52,,CLR,2.00,VWS V14.00,2013-07-05 00:28:00,
2013-07-04 20:33:00,70.6,69.7,30.10,SE,131,0.0,1.0,97,0.52,,CLR,2.00,VWS V14.00,2013-07-05 00:33:00,
2013-07-04 20:38:00,70.5,69.6,30.10,SE,131,0.0,1.0,97,0.52,,CLR,2.00,VWS V14.00,2013-07-05 00:38:00,
2013-07-04 20:43:00,70.4,69.5,30.10,SE,131,0.0,1.0,97,0.52,,CLR,2.00,VWS V14.00,2013-07-05 00:43:00,
2013-07-04 20:48:00,70.3,69.4,30.10,SE,131,0.0,1.0,97,0.52,,CLR,2.00,VWS V14.00,2013-07-05 00:48:00,
2013-07-04 20:53:00,70.2,69.3,30.10,SE,131,0.0,1.0,97,0.52,,CLR,2.00,VWS V14.00,2013-07-05 00:53:00,
2013-07-04 20:58:00,70.1,69.2,30.10,SE,131,0.0,1.0,97,0.52,,CLR,2.00,VWS V14.00,2013-07-05 00:58:00,
2013-07-04 21:03:00,69.9,69.0,30.10,SE,131,0.0,0.0,97,0.11,,CLR,2.00,VWS V14.00,2013-07-05 01:03:00,
2013-07-04 21:08:00,69.7,68.8,30.10,SE,131,0.0,0.0,97,0.11,,CLR,2.00,VWS V14.00,2013-07-05 01:08:00,
2013-07-04 21:13:00,69.6,68.7,30.10,SE,131,0.0,0.0,97,0.11,,CLR,2.00,VWS V14.00,2013-07-05 01:13:00,
2013-07-04 21:18:00,69.4,68.5,30.10,SE,131,0.0,0.0,97,0.11,,CLR,2.00,VWS V14.00,2013-07-05 01:18:00,
2013-07-04 21:23:00,69.2,68.3,30.10,SE,131,0.0,0.0,97,0.11,,CLR,2.00,VWS V14.00,2013-07-05 01:23:00,
2013-07-04 21:28:00,69.1,68.2,30.10,SE,131,0.0,0.0,97,0.11,,CLR,2.00,VWS V14.00,2013-07-05 01:28:00,
2013-07-04 21:33:00,69.0,68.1,30.10,SE,131,0.0,0.0,97,0.00,,CLR,2.00,VWS V14.00,2013-07-05 01:33:00,
2013-07-04 21:38:00,69.0,68.1,30.10,SE,131,0.0,0.0,97,0.00,,CLR,2.00,VWS V14.00,2013-07-05 01:38:00,
2013-07-04 21:43:00,68.9,68.0,30.10,SE,131,0.0,0.0,97,0.00,,CLR,2.00,VWS V14.00,2013-07-05 01:43:00,
2013-07-04 21:48:00,68.9,68.0,30.11,SE,131,0.0,0.0,97,0.00,,CLR,2.00,VWS V14.00,2013-07-05 01:48:00,
2013-07-04 21:53:00,68.8,67.9,30.11,SE,131,0.0,0.0,97,0.00,,CLR,2.00,VWS V14.00,2013-07-05 01:53:00,
2013-07-04 21:58:00,68.9,68.0,30.11,SE,131,0.0,0.0,97,0.00,,CLR,2.00,VWS V14.00,2013-07-05 01:58:00,
2013-07-04 22:03:00,69.0,68.1,30.13,SE,131,0.0,0.0,97,0.00,,CLR,2.00,VWS V14.00,2013-07-05 02:03:00,
2013-07-04 22:08:00,69.0,68.1,30.13,SE,131,0.0,1.0,97,0.00,,CLR,2.00,VWS V14.00,2013-07-05 02:08:00,
2013-07-04 22:13:00,69.1,68.2,30.13,SE,131,0.0,1.0,97,0.01,,CLR,2.01,VWS V14.00,2013-07-05 02:13:00,
2013-07-04 22:18:00,69.2,68.3,30.13,SE,131,0.0,1.0,97,0.07,,CLR,2.07,VWS V14.00,2013-07-05 02:18:00,
2013-07-04 22:24:00,69.2,68.3,30.13,SE,131,0.0,1.0,97,0.07,,CLR,2.07,VWS V14.00,2013-07-05 02:24:00,
2013-07-04 22:28:00,69.3,68.4,30.13,SE,131,0.0,1.0,97,0.08,,CLR,2.08,VWS V14.00,2013-07-05 02:28:00,
2013-07-04 22:33:00,69.2,68.3,30.13,SE,131,0.0,0.0,97,0.08,,CLR,2.08,VWS V14.00,2013-07-05 02:33:00,
2013-07-04 22:38:00,69.1,68.2,30.13,SE,131,0.0,0.0,97,0.08,,CLR,2.08,VWS V14.00,2013-07-05 02:38:00,
2013-07-04 22:43:00,69.0,68.1,30.13,SE,131,0.0,1.0,97,0.08,,CLR,2.08,VWS V14.00,2013-07-05 02:43:00,
2013-07-04 22:48:00,69.0,68.1,30.13,SE,131,0.0,1.0,97,0.08,,CLR,2.08,VWS V14.00,2013-07-05 02:48:00,
2013-07-04 22:53:00,69.0,68.1,30.13,SE,131,0.0,1.0,97,0.08,,CLR,2.08,VWS V14.00,2013-07-05 02:53:00,
2013-07-04 22:58:00,68.9,68.0,30.13,SE,131,0.0,1.0,97,0.08,,CLR,2.08,VWS V14.00,2013-07-05 02:58:00,
2013-07-04 23:04:00,68.9,68.0,30.13,SE,131,0.0,0.0,97,0.08,,CLR,2.08,VWS V14.00,2013-07-05 03:04:00,
2013-07-04 23:09:00,69.0,68.1,30.13,SE,131,0.0,0.0,97,0.08,,CLR,2.08,VWS V14.00,2013-07-05 03:09:00,
2013-07-04 23:14:00,69.0,68.1,30.13,SE,131,0.0,0.0,97,0.08,,CLR,2.08,VWS V14.00,2013-07-05 03:14:00,
2013-07-04 23:19:00,69.0,68.1,30.12,SE,131,0.0,0.0,97,0.08,,CLR,2.08,VWS V14.00,2013-07-05 03:19:00,
2013-07-04 23:24:00,69.0,68.1,30.12,SE,131,0.0,0.0,97,0.08,,CLR,2.08,VWS V14.00,2013-07-05 03:24:00,
2013-07-04 23:29:00,69.1,68.2,30.12,SE,131,0.0,0.0,97,0.08,,CLR,2.08,VWS V14.00,2013-07-05 03:29:00,
2013-07-04 23:34:00,69.1,68.2,30.11,SE,131,0.0,0.0,97,0.00,,CLR,2.08,VWS V14.00,2013-07-05 03:34:00,
2013-07-04 23:39:00,69.2,68.3,30.11,SE,131,0.0,1.0,97,0.00,,CLR,2.08,VWS V14.00,2013-07-05 03:39:00,
2013-07-04 23:44:00,69.2,68.3,30.11,SE,131,0.0,1.0,97,0.00,,CLR,2.08,VWS V14.00,2013-07-05 03:44:00,
2013-07-04 23:49:00,69.2,68.3,30.12,SE,131,0.0,1.0,97,0.00,,CLR,2.08,VWS V14.00,2013-07-05 03:49:00,
2013-07-04 23:54:00,69.2,68.3,30.12,SE,131,0.0,1.0,97,0.00,,CLR,2.08,VWS V14.00,2013-07-05 03:54:00,
2013-07-04 23:59:00,69.3,68.4,30.12,SE,131,0.0,1.0,97,0.00,,CLR,2.08,VWS V14.00,2013-07-05 03:59:00,